Time;durP1;ratioP1;P1;durP2;ratioP2;P2;SDS_P1;SDS_P2;PMS_P1;PMS_P2;Temp;Humidity;BMP_temperature;BMP_pressure;BME280_temperature;BME280_humidity;BME280_pressure;Samples;Min_cycle;Max_cycle;Signal;HPM_P1;HPM_P2
2023/05/07 00:02:26;;;;;;;16.30;12.07;;;11.10;99.90;;;;;;5080146;28;20492;-70
2023/05/07 00:04:53;;;;;;;14.27;12.70;;;11.10;99.90;;;;;;5080447;28;20458;-69
2023/05/07 00:07:20;;;;;;;13.33;11.90;;;11.10;99.90;;;;;;5080516;28;20457;-70
2023/05/07 00:09:46;;;;;;;13.60;11.90;;;11.10;99.90;;;;;;5080626;28;20534;-68
2023/05/07 00:12:15;;;;;;;13.93;12.50;;;11.10;99.90;;;;;;5080153;28;20504;-70
2023/05/07 00:14:42;;;;;;;12.67;11.43;;;11.20;99.90;;;;;;5080638;28;20540;-69
2023/05/07 00:17:09;;;;;;;14.80;12.20;;;11.20;99.90;;;;;;5079906;28;20536;-69
2023/05/07 00:19:36;;;;;;;16.40;12.23;;;11.20;99.90;;;;;;5079288;28;20503;-69
2023/05/07 00:22:02;;;;;;;13.37;12.00;;;11.10;99.90;;;;;;5079241;28;20883;-69
2023/05/07 00:24:29;;;;;;;15.43;13.17;;;11.10;99.90;;;;;;5079015;28;20557;-69
2023/05/07 00:26:57;;;;;;;12.43;11.10;;;11.10;99.90;;;;;;5079159;28;20821;-69
2023/05/07 00:29:26;;;;;;;13.70;12.20;;;11.10;99.90;;;;;;5078629;28;20960;-69
2023/05/07 00:31:54;;;;;;;15.80;13.63;;;11.10;99.90;;;;;;5078630;28;20454;-69
2023/05/07 00:34:21;;;;;;;14.57;11.70;;;11.10;99.90;;;;;;5079028;28;20458;-69
2023/05/07 00:36:48;;;;;;;13.87;11.77;;;11.20;99.90;;;;;;5079811;28;20458;-69
2023/05/07 00:39:14;;;;;;;12.90;11.60;;;11.20;99.90;;;;;;5079131;28;20601;-68
2023/05/07 00:41:41;;;;;;;14.97;10.90;;;11.20;99.90;;;;;;5078863;28;20843;-69
2023/05/07 00:44:08;;;;;;;12.43;11.13;;;11.20;99.90;;;;;;5078590;28;20870;-68
2023/05/07 00:46:36;;;;;;;13.40;11.90;;;11.10;99.90;;;;;;5078470;28;21002;-69
2023/05/07 00:49:03;;;;;;;13.40;12.10;;;11.10;99.90;;;;;;5078280;28;20462;-69
2023/05/07 00:51:33;;;;;;;12.27;11.07;;;11.10;99.90;;;;;;5079009;28;20468;-69
2023/05/07 00:54:02;;;;;;;13.77;11.77;;;11.10;99.90;;;;;;5079220;28;20545;-69
2023/05/07 00:56:29;;;;;;;14.10;12.60;;;11.10;99.90;;;;;;5078998;28;20469;-68
2023/05/07 00:58:56;;;;;;;13.37;12.00;;;11.10;99.90;;;;;;5079087;28;20478;-68
2023/05/07 01:01:23;;;;;;;14.57;12.10;;;11.10;99.90;;;;;;5078799;28;20937;-69
2023/05/07 01:03:51;;;;;;;14.17;11.40;;;11.00;99.90;;;;;;5078438;28;20533;-68
2023/05/07 01:06:19;;;;;;;16.50;12.10;;;11.10;99.90;;;;;;5078753;28;20490;-67
2023/05/07 01:08:47;;;;;;;13.27;11.60;;;11.10;99.90;;;;;;5078921;28;20542;-69
2023/05/07 01:11:14;;;;;;;14.10;12.60;;;11.10;99.90;;;;;;5078410;28;20484;-70
2023/05/07 01:13:42;;;;;;;13.67;12.30;;;11.10;99.90;;;;;;5078953;28;20535;-69
2023/05/07 01:16:10;;;;;;;12.53;11.30;;;11.10;99.90;;;;;;5078696;28;20476;-69
2023/05/07 01:18:37;;;;;;;13.60;12.13;;;11.10;99.90;;;;;;5078036;28;20478;-69
2023/05/07 01:21:06;;;;;;;12.73;11.17;;;11.10;99.90;;;;;;5078622;28;20462;-68
2023/05/07 01:23:36;;;;;;;13.87;11.77;;;11.10;99.90;;;;;;5078343;28;20953;-69
2023/05/07 01:26:02;;;;;;;14.17;11.90;;;11.10;99.90;;;;;;5078655;28;20462;-69
2023/05/07 01:28:29;;;;;;;13.77;12.33;;;11.10;99.90;;;;;;5078534;28;20841;-69
2023/05/07 01:31:02;;;;;;;13.33;11.90;;;11.10;99.90;;;;;;5078401;28;20469;-69
2023/05/07 01:33:32;;;;;;;14.83;12.77;;;11.10;99.90;;;;;;5078198;28;20442;-69
2023/05/07 01:36:02;;;;;;;14.30;12.07;;;11.10;99.90;;;;;;5080372;28;20458;-70
2023/05/07 01:38:29;;;;;;;13.27;11.90;;;11.10;99.90;;;;;;5041362;28;1109157;-69
2023/05/07 01:40:59;;;;;;;13.03;11.63;;;11.10;99.90;;;;;;5079079;28;20290;-69
2023/05/07 01:43:26;;;;;;;14.50;11.80;;;11.10;99.90;;;;;;5077464;28;20453;-69
2023/05/07 01:45:53;;;;;;;14.43;11.00;;;11.10;99.90;;;;;;5077796;28;20468;-69
2023/05/07 01:48:21;;;;;;;13.70;11.33;;;11.20;99.90;;;;;;5077565;28;20854;-69
2023/05/07 01:50:48;;;;;;;13.47;12.07;;;11.20;99.90;;;;;;5076896;28;20935;-68
2023/05/07 01:53:15;;;;;;;12.10;10.90;;;11.20;99.90;;;;;;5077223;28;20847;-69
2023/05/07 01:55:42;;;;;;;11.87;10.67;;;11.20;99.90;;;;;;5076990;28;20458;-69
2023/05/07 01:58:10;;;;;;;16.63;12.10;;;11.20;99.90;;;;;;5076692;28;20486;-68
2023/05/07 02:00:37;;;;;;;12.03;10.70;;;11.10;99.90;;;;;;5076887;28;20465;-69
2023/05/07 02:03:04;;;;;;;12.73;11.43;;;11.10;99.90;;;;;;5076873;28;20464;-68
2023/05/07 02:05:31;;;;;;;13.60;11.80;;;11.10;99.90;;;;;;5076570;28;20465;-69
2023/05/07 02:07:58;;;;;;;13.20;11.80;;;11.10;99.90;;;;;;5075930;28;20854;-69
2023/05/07 02:10:25;;;;;;;12.47;10.83;;;11.10;99.90;;;;;;5076489;28;20455;-69
2023/05/07 02:12:51;;;;;;;14.80;10.47;;;11.10;99.90;;;;;;5076520;28;20760;-69
2023/05/07 02:15:20;;;;;;;13.00;10.77;;;11.10;99.90;;;;;;5076167;28;20557;-69
2023/05/07 02:18:00;;;;;;;15.07;11.43;;;11.10;99.90;;;;;;5076208;28;20454;-69
2023/05/07 02:20:27;;;;;;;12.07;10.87;;;11.10;99.90;;;;;;5076826;28;20454;-69
2023/05/07 02:22:54;;;;;;;13.60;10.70;;;11.20;99.90;;;;;;5075677;28;20541;-69
2023/05/07 02:25:20;;;;;;;11.67;10.57;;;11.20;99.90;;;;;;5076097;28;20732;-69
2023/05/07 02:27:47;;;;;;;12.23;11.00;;;11.10;99.90;;;;;;5075648;28;21002;-69
2023/05/07 02:30:15;;;;;;;13.23;11.70;;;11.10;99.90;;;;;;5075725;28;20669;-69
2023/05/07 02:32:43;;;;;;;11.90;10.70;;;11.10;99.90;;;;;;5075400;28;20541;-69
2023/05/07 02:35:10;;;;;;;13.60;12.13;;;11.10;99.90;;;;;;5076160;28;20477;-69
2023/05/07 02:37:37;;;;;;;13.43;11.60;;;11.10;99.90;;;;;;5075785;28;20450;-69
2023/05/07 02:40:05;;;;;;;12.47;11.17;;;11.00;99.90;;;;;;5075898;28;20568;-69
2023/05/07 02:42:32;;;;;;;13.70;10.53;;;11.00;99.90;;;;;;5075760;28;20915;-68
2023/05/07 02:44:59;;;;;;;13.37;11.97;;;11.00;99.90;;;;;;5075637;28;20572;-69
2023/05/07 02:47:26;;;;;;;12.10;10.83;;;11.00;99.90;;;;;;5075877;28;20997;-69
2023/05/07 02:49:54;;;;;;;12.07;10.60;;;11.00;99.90;;;;;;5075325;28;20546;-69
2023/05/07 02:52:21;;;;;;;12.97;11.67;;;11.00;99.90;;;;;;5075964;28;20454;-69
2023/05/07 02:54:48;;;;;;;12.47;11.17;;;11.00;99.90;;;;;;5075664;28;20457;-69
2023/05/07 02:57:15;;;;;;;13.73;11.70;;;11.00;99.90;;;;;;5075818;28;20461;-69
2023/05/07 02:59:43;;;;;;;10.93;9.83;;;11.00;99.90;;;;;;5075281;28;20478;-69
2023/05/07 03:02:09;;;;;;;17.57;11.60;;;11.10;99.90;;;;;;5075295;28;20464;-69
2023/05/07 03:04:36;;;;;;;12.07;10.73;;;11.10;99.90;;;;;;5075956;28;20459;-68
2023/05/07 03:07:04;;;;;;;11.60;10.50;;;11.00;99.90;;;;;;5075885;28;20450;-68
2023/05/07 03:09:31;;;;;;;12.27;10.03;;;11.00;99.90;;;;;;5075633;28;20522;-69
2023/05/07 03:11:58;;;;;;;11.30;10.20;;;11.00;99.90;;;;;;5075580;28;20465;-69
2023/05/07 03:14:25;;;;;;;9.90;9.00;;;11.00;99.90;;;;;;5075410;28;20463;-69
2023/05/07 03:16:52;;;;;;;10.97;9.83;;;11.00;99.90;;;;;;5075475;28;20459;-69
2023/05/07 03:19:19;;;;;;;13.37;10.70;;;11.00;99.90;;;;;;5075192;28;20480;-68
2023/05/07 03:21:45;;;;;;;12.03;9.50;;;11.00;99.90;;;;;;5075777;28;20512;-69
2023/05/07 03:24:14;;;;;;;11.60;10.40;;;11.00;99.90;;;;;;5075435;28;20454;-69
2023/05/07 03:26:40;;;;;;;13.13;10.33;;;10.90;99.90;;;;;;5075592;28;20761;-68
2023/05/07 03:29:07;;;;;;;13.53;10.57;;;11.00;99.90;;;;;;5075556;28;20450;-68
2023/05/07 03:31:34;;;;;;;10.63;9.63;;;10.90;99.90;;;;;;5075500;28;20458;-69
2023/05/07 03:34:01;;;;;;;10.30;9.20;;;10.90;99.90;;;;;;5075665;28;20531;-69
2023/05/07 03:36:28;;;;;;;10.63;9.53;;;11.00;99.90;;;;;;5075278;28;20915;-69
2023/05/07 03:38:55;;;;;;;10.53;9.43;;;11.00;99.90;;;;;;5075429;28;20555;-69
2023/05/07 03:41:23;;;;;;;11.00;9.80;;;10.90;99.90;;;;;;5075518;28;20506;-70
2023/05/07 03:43:50;;;;;;;10.83;9.50;;;10.90;99.90;;;;;;5075301;28;20764;-69
2023/05/07 03:46:17;;;;;;;10.43;9.43;;;10.90;99.90;;;;;;5075358;28;20883;-68
2023/05/07 03:48:43;;;;;;;11.50;10.00;;;10.90;99.90;;;;;;5075626;28;20454;-69
2023/05/07 03:51:10;;;;;;;11.40;9.97;;;10.90;99.90;;;;;;5075223;28;20442;-69
2023/05/07 03:53:37;;;;;;;11.23;10.00;;;10.80;99.90;;;;;;5075586;28;20515;-69
2023/05/07 03:56:04;;;;;;;10.50;9.50;;;10.80;99.90;;;;;;5075706;28;20810;-69
2023/05/07 03:58:33;;;;;;;12.03;9.90;;;10.80;99.90;;;;;;5075574;28;20806;-69
2023/05/07 04:00:59;;;;;;;10.47;9.50;;;10.80;99.90;;;;;;5075511;28;20764;-69
2023/05/07 04:03:26;;;;;;;11.50;9.50;;;10.80;99.90;;;;;;5075105;28;20458;-68
2023/05/07 04:05:53;;;;;;;10.67;9.67;;;10.80;99.90;;;;;;5075442;28;20458;-69
2023/05/07 04:08:20;;;;;;;10.60;9.23;;;10.80;99.90;;;;;;5074879;28;20549;-68
2023/05/07 04:10:47;;;;;;;10.23;9.17;;;10.80;99.90;;;;;;5075095;28;20460;-69
2023/05/07 04:13:14;;;;;;;11.03;9.27;;;10.90;99.90;;;;;;5074947;28;20545;-69
2023/05/07 04:15:42;;;;;;;10.87;9.30;;;10.90;99.90;;;;;;5075808;28;20460;-69
2023/05/07 04:18:09;;;;;;;9.97;8.90;;;10.90;99.90;;;;;;5075294;28;20742;-68
2023/05/07 04:20:37;;;;;;;12.53;9.73;;;10.90;99.90;;;;;;5075160;28;20478;-69
2023/05/07 04:23:04;;;;;;;11.70;9.60;;;10.90;99.90;;;;;;5075505;28;20783;-69
2023/05/07 04:25:30;;;;;;;10.80;9.70;;;10.80;99.90;;;;;;5075462;28;20965;-69
2023/05/07 04:27:57;;;;;;;12.70;10.20;;;10.80;99.90;;;;;;5075226;28;20464;-69
2023/05/07 04:30:24;;;;;;;10.20;9.10;;;10.80;99.90;;;;;;5075353;28;20929;-69
2023/05/07 04:32:52;;;;;;;11.60;9.67;;;10.80;99.90;;;;;;5078714;28;20974;-68
2023/05/07 04:35:19;;;;;;;10.23;9.03;;;10.90;99.90;;;;;;5078837;28;20531;-68
2023/05/07 04:37:46;;;;;;;9.83;8.80;;;10.90;99.90;;;;;;5078483;28;20485;-69
2023/05/07 04:40:13;;;;;;;9.87;8.80;;;11.00;99.90;;;;;;5078771;28;20957;-68
2023/05/07 04:42:40;;;;;;;10.73;9.20;;;11.00;99.90;;;;;;5079301;28;20454;-68
2023/05/07 04:45:08;;;;;;;8.80;7.90;;;11.00;99.90;;;;;;5078990;28;20464;-68
2023/05/07 04:47:35;;;;;;;9.10;8.20;;;11.00;99.90;;;;;;5079295;28;20922;-69
2023/05/07 04:50:03;;;;;;;10.03;9.03;;;11.00;99.90;;;;;;5078756;28;20449;-68
2023/05/07 04:52:31;;;;;;;9.10;8.10;;;11.00;99.90;;;;;;5078995;28;20796;-67
2023/05/07 04:54:59;;;;;;;10.20;9.10;;;11.10;99.90;;;;;;5079132;28;20465;-69
2023/05/07 04:57:26;;;;;;;9.60;8.53;;;11.00;99.90;;;;;;5078852;28;20454;-69
2023/05/07 04:59:53;;;;;;;11.77;9.30;;;11.10;99.90;;;;;;5078834;28;20565;-69
2023/05/07 05:02:20;;;;;;;9.20;8.20;;;11.00;99.90;;;;;;5078928;28;20458;-69
2023/05/07 05:04:47;;;;;;;9.60;7.90;;;11.00;99.90;;;;;;5078966;28;20466;-69
2023/05/07 05:07:15;;;;;;;11.03;8.50;;;11.10;99.90;;;;;;5078915;28;20492;-69
2023/05/07 05:09:42;;;;;;;8.67;7.30;;;11.10;99.90;;;;;;5078293;28;20545;-69
2023/05/07 05:12:09;;;;;;;9.47;8.53;;;11.20;99.90;;;;;;5078575;28;20615;-69
2023/05/07 05:14:35;;;;;;;8.17;7.37;;;11.20;99.90;;;;;;5078068;28;20529;-69
2023/05/07 05:17:02;;;;;;;8.53;7.73;;;11.30;99.90;;;;;;5078155;28;20461;-69
2023/05/07 05:19:29;;;;;;;9.20;8.30;;;11.40;99.90;;;;;;5078291;28;20882;-68
2023/05/07 05:21:56;;;;;;;9.07;8.17;;;11.40;99.90;;;;;;5077835;28;20903;-70
2023/05/07 05:24:24;;;;;;;8.17;7.33;;;11.40;99.90;;;;;;5078187;28;20458;-69
2023/05/07 05:26:53;;;;;;;9.50;7.90;;;11.40;99.90;;;;;;5077732;28;20468;-68
2023/05/07 05:29:20;;;;;;;10.30;8.73;;;11.50;99.90;;;;;;5077403;28;20528;-68
2023/05/07 05:31:47;;;;;;;9.00;8.10;;;11.50;99.90;;;;;;5077647;28;20540;-69
2023/05/07 05:34:14;;;;;;;8.93;7.80;;;11.50;99.90;;;;;;5077404;28;20795;-68
2023/05/07 05:36:41;;;;;;;11.43;8.00;;;11.50;99.90;;;;;;5077525;28;20544;-68
2023/05/07 05:39:08;;;;;;;9.33;8.30;;;11.50;99.90;;;;;;5077227;28;20581;-68
2023/05/07 05:41:36;;;;;;;9.07;8.13;;;11.60;99.90;;;;;;5077958;28;20809;-69
2023/05/07 05:44:03;;;;;;;8.77;7.87;;;11.60;99.90;;;;;;5076308;28;20464;-69
2023/05/07 05:46:30;;;;;;;9.10;8.20;;;11.60;99.90;;;;;;5077464;28;20464;-69
2023/05/07 05:48:57;;;;;;;13.67;8.43;;;11.70;99.90;;;;;;5077201;28;20481;-68
2023/05/07 05:51:24;;;;;;;8.97;8.07;;;11.80;99.90;;;;;;5077492;28;20793;-68
2023/05/07 05:53:51;;;;;;;12.00;9.03;;;11.80;99.90;;;;;;5076874;28;20553;-67
2023/05/07 05:56:18;;;;;;;9.57;7.57;;;11.90;99.90;;;;;;5076735;28;20528;-68
2023/05/07 05:58:47;;;;;;;7.87;7.00;;;11.90;99.90;;;;;;5076846;28;20540;-67
2023/05/07 06:01:14;;;;;;;8.30;7.50;;;11.90;99.90;;;;;;5077027;28;20486;-68
2023/05/07 06:03:41;;;;;;;8.50;7.10;;;11.90;99.90;;;;;;5076846;28;20454;-68
2023/05/07 06:06:08;;;;;;;10.00;7.37;;;12.00;99.90;;;;;;5076672;28;20793;-69
2023/05/07 06:08:34;;;;;;;10.53;7.60;;;12.00;99.90;;;;;;5076736;28;20522;-69
2023/05/07 06:11:02;;;;;;;8.43;7.63;;;12.00;99.90;;;;;;5076803;28;20456;-69
2023/05/07 06:13:29;;;;;;;11.43;8.10;;;12.00;99.90;;;;;;5076633;28;21065;-68
2023/05/07 06:15:57;;;;;;;9.07;8.17;;;12.10;99.90;;;;;;5076753;28;20540;-69
2023/05/07 06:18:24;;;;;;;7.33;6.63;;;12.10;99.90;;;;;;5076448;28;20462;-68
2023/05/07 06:20:52;;;;;;;10.27;8.37;;;12.20;99.90;;;;;;5076389;28;20486;-69
2023/05/07 06:23:19;;;;;;;7.43;6.03;;;12.20;99.90;;;;;;5076394;28;20461;-68
2023/05/07 06:25:50;;;;;;;8.87;8.00;;;12.20;99.90;;;;;;5076134;28;20553;-68
2023/05/07 06:28:17;;;;;;;11.00;6.47;;;12.30;99.90;;;;;;5076220;28;20447;-68
2023/05/07 06:30:43;;;;;;;8.50;7.60;;;12.40;99.90;;;;;;5076629;28;20454;-70
2023/05/07 06:33:12;;;;;;;7.27;6.50;;;12.50;99.90;;;;;;5076437;28;20541;-68
2023/05/07 06:35:38;;;;;;;7.77;7.03;;;12.60;99.90;;;;;;5076287;28;20860;-68
2023/05/07 06:38:05;;;;;;;7.10;6.40;;;12.80;99.90;;;;;;5076043;28;20482;-68
2023/05/07 06:40:32;;;;;;;7.90;7.13;;;12.90;99.90;;;;;;5076117;28;20496;-68
2023/05/07 06:42:59;;;;;;;8.40;7.47;;;12.90;99.90;;;;;;5076435;28;20537;-68
2023/05/07 06:45:26;;;;;;;8.00;7.20;;;13.00;99.90;;;;;;5075666;28;20547;-68
2023/05/07 06:47:55;;;;;;;7.90;7.20;;;13.10;99.90;;;;;;5076298;28;20462;-68
2023/05/07 06:50:23;;;;;;;7.87;6.47;;;13.10;99.90;;;;;;5075975;28;20450;-68
2023/05/07 06:52:50;;;;;;;7.47;6.00;;;13.20;99.90;;;;;;5076343;28;20462;-68
2023/05/07 06:55:17;;;;;;;7.40;6.40;;;13.20;99.90;;;;;;5075681;28;20462;-68
2023/05/07 06:57:44;;;;;;;6.37;5.77;;;13.20;99.90;;;;;;5075722;28;20545;-68
2023/05/07 07:00:11;;;;;;;6.87;6.17;;;13.20;99.90;;;;;;5076277;28;20509;-68
2023/05/07 07:02:38;;;;;;;8.60;6.40;;;13.30;99.90;;;;;;5076465;28;20802;-68
2023/05/07 07:05:06;;;;;;;7.53;6.70;;;13.40;99.90;;;;;;5075872;28;20464;-68
2023/05/07 07:07:34;;;;;;;11.80;6.80;;;13.40;99.90;;;;;;5076060;28;20792;-69
2023/05/07 07:10:01;;;;;;;7.90;6.87;;;13.20;99.90;;;;;;5075949;28;20478;-68
2023/05/07 07:12:29;;;;;;;11.50;10.30;;;13.10;99.90;;;;;;5075673;28;20493;-69
2023/05/07 07:14:56;;;;;;;9.40;6.70;;;13.10;99.90;;;;;;5076019;28;20486;-69
2023/05/07 07:17:23;;;;;;;7.27;6.57;;;13.20;99.90;;;;;;5075633;28;20454;-69
2023/05/07 07:19:50;;;;;;;9.90;8.93;;;13.20;99.90;;;;;;5075735;28;20454;-69
2023/05/07 07:22:17;;;;;;;6.73;6.10;;;13.20;99.90;;;;;;5075761;28;20458;-69
2023/05/07 07:24:45;;;;;;;8.30;7.10;;;13.30;99.90;;;;;;5075020;28;20446;-69
2023/05/07 07:27:12;;;;;;;6.43;5.30;;;13.40;99.90;;;;;;5075034;28;20549;-69
2023/05/07 07:29:39;;;;;;;4.90;4.37;;;13.20;99.90;;;;;;5075242;28;20460;-70
2023/05/07 07:32:06;;;;;;;9.10;5.27;;;13.10;99.90;;;;;;5074765;28;20454;-70
2023/05/07 07:34:33;;;;;;;5.57;5.00;;;13.20;99.90;;;;;;5075326;28;20465;-70
2023/05/07 07:37:05;;;;;;;9.43;5.80;;;13.10;99.90;;;;;;5075111;28;20481;-68
2023/05/07 07:39:31;;;;;;;7.33;4.80;;;13.20;99.90;;;;;;5074926;28;20581;-70
2023/05/07 07:42:00;;;;;;;6.23;5.63;;;13.20;99.90;;;;;;5074538;28;20525;-69
2023/05/07 07:44:28;;;;;;;5.33;4.83;;;13.20;99.90;;;;;;5074733;28;20450;-69
2023/05/07 07:46:55;;;;;;;6.00;4.67;;;13.30;99.90;;;;;;5075115;28;20458;-69
2023/05/07 07:49:22;;;;;;;4.70;4.30;;;13.30;99.90;;;;;;5075341;28;20459;-69
2023/05/07 07:51:48;;;;;;;5.17;4.20;;;13.40;99.90;;;;;;5074335;28;20541;-70
2023/05/07 07:54:16;;;;;;;5.93;3.77;;;13.40;99.90;;;;;;5075612;28;20517;-69
2023/05/07 07:56:43;;;;;;;4.70;4.30;;;13.40;99.90;;;;;;5075255;28;20516;-67
2023/05/07 07:59:11;;;;;;;5.03;3.63;;;13.40;99.90;;;;;;5075036;28;20763;-68
2023/05/07 08:01:38;;;;;;;4.80;4.10;;;13.40;99.90;;;;;;5074991;28;20521;-68
2023/05/07 08:04:05;;;;;;;4.17;3.73;;;13.30;99.90;;;;;;5074680;28;20458;-68
2023/05/07 08:06:32;;;;;;;5.83;4.10;;;13.30;99.90;;;;;;5076832;28;20781;-67
2023/05/07 08:08:59;;;;;;;4.80;4.20;;;13.30;99.90;;;;;;5079057;28;20468;-69
2023/05/07 08:11:26;;;;;;;4.73;4.00;;;13.30;99.90;;;;;;5078756;28;20454;-69
2023/05/07 08:13:53;;;;;;;4.30;3.97;;;13.40;99.90;;;;;;5079287;28;20458;-69
2023/05/07 08:16:21;;;;;;;5.97;4.30;;;13.50;99.90;;;;;;5079982;28;20464;-70
2023/05/07 08:18:48;;;;;;;4.00;3.60;;;13.60;99.90;;;;;;5079428;28;20539;-69
2023/05/07 08:21:15;;;;;;;5.33;3.13;;;13.70;99.90;;;;;;5079577;28;20484;-70
2023/05/07 08:23:42;;;;;;;3.90;3.60;;;13.70;99.90;;;;;;5079631;28;20493;-69
2023/05/07 08:26:10;;;;;;;4.10;3.70;;;13.80;99.90;;;;;;5079765;28;20450;-69
2023/05/07 08:28:37;;;;;;;3.77;3.47;;;13.90;99.90;;;;;;5079502;28;20462;-70
2023/05/07 08:31:03;;;;;;;3.70;3.40;;;13.90;99.90;;;;;;5078621;28;20552;-70
2023/05/07 08:33:32;;;;;;;3.93;3.53;;;13.90;99.90;;;;;;5079075;28;20480;-69
2023/05/07 08:35:59;;;;;;;3.97;3.63;;;14.00;99.90;;;;;;5078931;28;20472;-70
2023/05/07 08:38:25;;;;;;;3.43;3.13;;;14.00;99.90;;;;;;5078126;28;20489;-71
2023/05/07 08:40:53;;;;;;;3.40;3.10;;;14.00;99.90;;;;;;5078490;28;20478;-69
2023/05/07 08:43:22;;;;;;;4.00;3.60;;;14.10;99.90;;;;;;5079291;28;20522;-70
2023/05/07 08:45:54;;;;;;;4.43;3.30;;;14.20;99.90;;;;;;5079680;28;20551;-69
2023/05/07 08:48:26;;;;;;;4.00;3.60;;;14.40;99.90;;;;;;5079220;28;20457;-69
2023/05/07 08:50:54;;;;;;;5.03;3.90;;;14.50;99.90;;;;;;5080214;28;20442;-70
2023/05/07 08:53:21;;;;;;;5.60;3.53;;;14.50;99.90;;;;;;5079851;28;20548;-69
2023/05/07 08:55:49;;;;;;;3.47;3.17;;;14.50;99.90;;;;;;5079732;28;20814;-69
2023/05/07 08:58:16;;;;;;;4.70;3.73;;;14.60;99.90;;;;;;5079629;28;20454;-69
2023/05/07 09:00:43;;;;;;;3.47;3.17;;;14.60;99.90;;;;;;5079069;28;20975;-70
2023/05/07 09:03:12;;;;;;;3.77;3.47;;;14.70;99.90;;;;;;5079497;28;20468;-69
2023/05/07 09:05:38;;;;;;;3.90;3.60;;;14.80;99.90;;;;;;5081243;28;20458;-70
2023/05/07 09:08:08;;;;;;;3.73;3.43;;;14.90;99.90;;;;;;5080945;28;20458;-68
2023/05/07 09:10:35;;;;;;;3.43;3.13;;;15.00;99.90;;;;;;5079437;28;20461;-69
2023/05/07 09:13:03;;;;;;;5.37;3.80;;;15.10;99.90;;;;;;5079032;28;20458;-69
2023/05/07 09:15:30;;;;;;;2.90;2.70;;;15.20;99.90;;;;;;5078977;28;20458;-69
2023/05/07 09:18:01;;;;;;;5.37;3.50;;;15.30;99.90;;;;;;5078202;28;20549;-68
2023/05/07 09:20:30;;;;;;;3.67;3.37;;;15.30;99.90;;;;;;5078473;28;20439;-68
2023/05/07 09:22:57;;;;;;;3.20;2.90;;;15.40;99.90;;;;;;5078909;28;20468;-68
2023/05/07 09:25:31;;;;;;;4.70;3.27;;;15.50;99.90;;;;;;5079648;28;20481;-69
2023/05/07 09:27:58;;;;;;;3.53;3.20;;;15.60;99.90;;;;;;5081768;28;20449;-69
2023/05/07 09:30:29;;;;;;;2.87;2.63;;;15.70;99.90;;;;;;5084572;28;20490;-69
2023/05/07 09:32:56;;;;;;;3.90;3.20;;;15.90;99.90;;;;;;5080725;28;20512;-69
2023/05/07 09:35:26;;;;;;;3.47;3.03;;;15.90;99.90;;;;;;5081652;28;20454;-69
2023/05/07 09:37:54;;;;;;;3.50;2.97;;;15.90;99.90;;;;;;5080580;28;20455;-69
2023/05/07 09:40:22;;;;;;;4.53;3.27;;;16.00;99.90;;;;;;5080616;28;20449;-69
2023/05/07 09:42:51;;;;;;;3.53;3.23;;;16.10;99.90;;;;;;5079991;28;20446;-69
2023/05/07 09:45:23;;;;;;;4.27;3.37;;;16.10;99.90;;;;;;5078913;28;20545;-69
2023/05/07 09:47:54;;;;;;;5.13;3.07;;;16.00;99.90;;;;;;5080399;28;20451;-69
2023/05/07 09:50:26;;;;;;;3.40;3.10;;;16.00;99.90;;;;;;5079782;28;20443;-69
2023/05/07 09:52:54;;;;;;;3.70;3.00;;;15.90;99.90;;;;;;5078628;28;20438;-69
2023/05/07 09:55:21;;;;;;;2.90;2.70;;;15.70;99.90;;;;;;5078198;28;20452;-69
2023/05/07 09:57:51;;;;;;;2.80;2.53;;;15.60;99.90;;;;;;5078825;28;20545;-70
2023/05/07 10:00:21;;;;;;;2.80;2.53;;;15.60;99.90;;;;;;5078284;28;20456;-69
2023/05/07 10:02:49;;;;;;;2.73;2.53;;;15.60;99.90;;;;;;5077834;28;20489;-68
2023/05/07 10:05:17;;;;;;;4.70;3.00;;;15.60;99.90;;;;;;5078421;28;20894;-68
2023/05/07 10:07:45;;;;;;;4.30;3.10;;;15.80;99.90;;;;;;5077917;28;20468;-69
2023/05/07 10:10:13;;;;;;;2.53;2.33;;;15.90;99.90;;;;;;5078916;28;20792;-69
2023/05/07 10:12:41;;;;;;;2.30;1.97;;;16.00;99.90;;;;;;5079819;28;20446;-70
2023/05/07 10:15:11;;;;;;;3.30;3.00;;;16.10;99.90;;;;;;5080677;28;20511;-69
2023/05/07 10:17:38;;;;;;;2.80;2.20;;;16.30;99.90;;;;;;5079381;28;20526;-70
2023/05/07 10:20:08;;;;;;;2.47;2.27;;;16.40;99.90;;;;;;5079972;28;20464;-71
2023/05/07 10:22:43;;;;;;;3.10;2.87;;;16.60;99.90;;;;;;5081867;28;20533;-70
2023/05/07 10:25:17;;;;;;;2.20;2.00;;;16.90;99.90;;;;;;5081818;28;20502;-69
2023/05/07 10:27:46;;;;;;;3.87;2.20;;;17.20;99.90;;;;;;5082015;28;20441;-69
2023/05/07 10:30:28;;;;;;;2.60;2.40;;;17.40;99.90;;;;;;5081831;28;20458;-69
2023/05/07 10:32:57;;;;;;;2.97;2.50;;;17.60;99.90;;;;;;5082840;28;20446;-69
2023/05/07 10:35:30;;;;;;;2.23;2.03;;;17.80;99.90;;;;;;5083307;28;20458;-69
2023/05/07 10:37:57;;;;;;;1.90;1.70;;;18.00;99.90;;;;;;5083674;28;20871;-69
2023/05/07 10:40:24;;;;;;;1.67;1.50;;;18.10;99.90;;;;;;5082912;28;20453;-70
2023/05/07 10:42:55;;;;;;;2.60;1.93;;;18.30;99.90;;;;;;5082410;28;20484;-69
2023/05/07 10:45:25;;;;;;;2.40;1.90;;;18.50;99.90;;;;;;5082763;28;20455;-69
2023/05/07 10:48:07;;;;;;;2.20;2.00;;;18.60;99.90;;;;;;5082489;28;20545;-69
2023/05/07 10:50:35;;;;;;;2.20;2.00;;;18.70;99.90;;;;;;5083039;28;20775;-69
2023/05/07 10:53:26;;;;;;;2.37;2.17;;;18.80;99.90;;;;;;5082945;28;20446;-70
2023/05/07 10:56:27;;;;;;;2.70;2.37;;;18.80;99.90;;;;;;5083864;28;20480;-70
2023/05/07 10:58:53;;;;;;;8.87;1.83;;;18.90;99.90;;;;;;5084384;28;20442;-69
2023/05/07 11:01:50;;;;;;;5.33;2.47;;;19.00;99.90;;;;;;5084266;28;20580;-70
2023/05/07 11:04:24;;;;;;;2.80;1.80;;;19.10;99.90;;;;;;5081885;28;20521;-69
2023/05/07 11:07:26;;;;;;;3.13;2.57;;;19.30;99.90;;;;;;5083741;28;20875;-69
2023/05/07 11:09:58;;;;;;;2.80;2.43;;;19.60;99.90;;;;;;5084485;28;20524;-69
2023/05/07 11:12:52;;;;;;;2.23;2.03;;;19.60;99.90;;;;;;5084451;28;20447;-69
2023/05/07 11:15:52;;;;;;;2.30;2.10;;;19.70;99.90;;;;;;5082644;28;20458;-69
2023/05/07 11:18:19;;;;;;;3.10;1.97;;;19.90;98.90;;;;;;5083567;28;20439;-69
2023/05/07 11:20:49;;;;;;;2.00;1.73;;;19.90;97.00;;;;;;5082335;28;20450;-69
2023/05/07 11:23:58;;;;;;;2.53;2.00;;;20.30;98.90;;;;;;5081404;28;20542;-70
2023/05/07 11:26:25;;;;;;;2.83;2.37;;;21.40;96.70;;;;;;5078918;28;20446;-70
2023/05/07 11:28:54;;;;;;;2.40;1.80;;;22.70;89.60;;;;;;5079406;28;20454;-69
2023/05/07 11:31:26;;;;;;;4.10;2.00;;;23.80;81.00;;;;;;5077951;28;20446;-69
2023/05/07 11:33:54;;;;;;;1.90;1.80;;;25.00;75.40;;;;;;5076614;28;20486;-69
2023/05/07 11:36:24;;;;;;;2.97;1.73;;;26.00;61.60;;;;;;5076300;28;20460;-69
2023/05/07 11:38:50;;;;;;;4.23;1.80;;;26.90;52.50;;;;;;5076393;28;20527;-69
2023/05/07 11:41:19;;;;;;;2.70;1.43;;;28.00;47.90;;;;;;5081012;28;20570;-69
2023/05/07 11:44:00;;;;;;;2.07;1.87;;;28.80;41.80;;;;;;5081799;28;20453;-69
2023/05/07 11:46:28;;;;;;;2.00;1.50;;;29.20;39.90;;;;;;5083106;28;20766;-68
2023/05/07 11:48:55;;;;;;;2.27;1.27;;;29.50;34.90;;;;;;5083169;28;20458;-70
2023/05/07 11:51:25;;;;;;;2.37;1.73;;;29.80;35.00;;;;;;5083648;28;20533;-70
2023/05/07 11:53:53;;;;;;;2.93;2.27;;;30.00;33.10;;;;;;5083914;28;20766;-70
2023/05/07 11:56:20;;;;;;;1.73;1.63;;;30.10;31.40;;;;;;5082837;28;20481;-70
2023/05/07 11:58:49;;;;;;;1.97;1.87;;;29.90;30.40;;;;;;5081848;28;20453;-70
2023/05/07 12:01:18;;;;;;;2.00;1.80;;;29.60;31.30;;;;;;5081720;28;20519;-69
2023/05/07 12:03:46;;;;;;;3.20;2.03;;;29.70;30.90;;;;;;5081568;28;20515;-68
2023/05/07 12:06:16;;;;;;;2.20;1.70;;;29.40;29.60;;;;;;5081559;28;20757;-69
2023/05/07 12:08:45;;;;;;;2.27;1.60;;;29.10;29.30;;;;;;5081103;28;20480;-69
2023/05/07 12:11:17;;;;;;;1.83;1.73;;;28.60;29.90;;;;;;5080453;28;20468;-68
2023/05/07 12:13:44;;;;;;;3.70;1.57;;;28.40;28.60;;;;;;5080635;28;20478;-69
2023/05/07 12:16:11;;;;;;;2.83;1.93;;;28.50;30.40;;;;;;5080159;28;20458;-69
2023/05/07 12:18:39;;;;;;;1.70;1.50;;;28.00;28.60;;;;;;5081162;28;20470;-69
2023/05/07 12:21:07;;;;;;;1.60;1.43;;;28.50;30.30;;;;;;5082091;28;20458;-69
2023/05/07 12:23:35;;;;;;;3.20;2.10;;;29.00;29.00;;;;;;5082906;28;20783;-70
2023/05/07 12:26:04;;;;;;;2.00;1.47;;;29.70;28.40;;;;;;5081962;28;20446;-70
2023/05/07 12:28:37;;;;;;;2.47;1.40;;;30.20;27.30;;;;;;5081614;28;20454;-70
2023/05/07 12:31:05;;;;;;;1.37;1.23;;;30.40;26.50;;;;;;5080065;28;20438;-70
2023/05/07 12:33:32;;;;;;;1.83;1.70;;;30.40;26.90;;;;;;5082834;28;20449;-69
2023/05/07 12:36:03;;;;;;;1.83;1.40;;;30.70;26.40;;;;;;5084844;28;20450;-69
2023/05/07 12:38:36;;;;;;;1.40;1.30;;;31.30;26.10;;;;;;5086136;28;20502;-69
2023/05/07 12:41:05;;;;;;;2.47;1.57;;;32.10;25.00;;;;;;5085335;28;20430;-69
2023/05/07 12:43:32;;;;;;;2.27;1.47;;;32.20;23.10;;;;;;5084720;28;20828;-69
2023/05/07 12:46:02;;;;;;;1.60;1.50;;;31.80;22.90;;;;;;5081602;28;20545;-68
2023/05/07 12:48:29;;;;;;;2.00;1.50;;;30.90;23.10;;;;;;5080941;28;20453;-69